Time;durP1;ratioP1;P1;durP2;ratioP2;P2;SDS_P1;SDS_P2;PMS_P1;PMS_P2;Temp;Humidity;BMP_temperature;BMP_pressure;BME280_temperature;BME280_humidity;BME280_pressure;Samples;Min_cycle;Max_cycle;Signal;HPM_P1;HPM_P2
2022/09/15 00:01:13;;;;;;;;;;;;;;;14.52;100.00;95600.31;10374353;28;97671;-58
2022/09/15 00:06:15;;;;;;;;;;;;;;;14.48;100.00;95583.31;10373874;28;97223;-58
2022/09/15 00:11:19;;;;;;;;;;;;;;;14.49;100.00;95590.22;10373117;28;98085;-59
2022/09/15 00:16:24;;;;;;;;;;;;;;;14.51;100.00;95581.13;10372341;28;97032;-58
2022/09/15 00:21:29;;;;;;;;;;;;;;;14.44;100.00;95572.38;10339621;28;96625;-58
2022/09/15 00:26:32;;;;;;;;;;;;;;;14.38;100.00;95573.09;10332186;28;96848;-58
2022/09/15 00:31:36;;;;;;;;;;;;;;;14.24;100.00;95585.28;10331636;28;96893;-58
2022/09/15 00:36:38;;;;;;;;;;;;;;;14.18;100.00;95596.53;10331270;28;96747;-58
2022/09/15 00:41:41;;;;;;;;;;;;;;;14.12;100.00;95595.47;10331459;28;96838;-59
2022/09/15 00:46:48;;;;;;;;;;;;;;;14.09;100.00;95603.72;10332736;28;96693;-60
2022/09/15 00:52:13;;;;;;;;;;;;;;;14.01;100.00;95593.31;10378736;28;98796;-58
2022/09/15 00:57:18;;;;;;;;;;;;;;;13.95;100.00;95594.88;10379100;28;96911;-59
2022/09/15 01:02:24;;;;;;;;;;;;;;;13.94;100.00;95590.59;10379425;28;96831;-59
2022/09/15 01:07:28;;;;;;;;;;;;;;;13.89;100.00;95586.91;10378378;28;96646;-58
2022/09/15 01:12:31;;;;;;;;;;;;;;;13.84;100.00;95571.72;10378670;28;96702;-59
2022/09/15 01:17:40;;;;;;;;;;;;;;;13.78;100.00;95578.50;10366556;28;97236;-58
2022/09/15 01:22:50;;;;;;;;;;;;;;;13.70;100.00;95572.56;10337749;28;96785;-59
2022/09/15 01:28:14;;;;;;;;;;;;;;;13.66;100.00;95568.69;10337002;28;97236;-58
2022/09/15 01:33:25;;;;;;;;;;;;;;;13.61;100.00;95556.91;10336970;28;96895;-58
2022/09/15 01:38:33;;;;;;;;;;;;;;;13.58;100.00;95556.47;10337109;28;96827;-58
2022/09/15 01:43:47;;;;;;;;;;;;;;;13.52;100.00;95546.72;10337010;28;98107;-58
2022/09/15 01:48:53;;;;;;;;;;;;;;;13.46;100.00;95537.72;10358672;28;97431;-58
2022/09/15 01:53:58;;;;;;;;;;;;;;;13.46;100.00;95531.69;10377676;28;96718;-58
2022/09/15 01:59:00;;;;;;;;;;;;;;;13.37;100.00;95520.47;10349225;28;96911;-58
2022/09/15 02:04:09;;;;;;;;;;;;;;;13.31;100.00;95518.56;10336109;28;96755;-58
2022/09/15 02:09:13;;;;;;;;;;;;;;;13.29;100.00;95526.66;10344923;28;96889;-58
2022/09/15 02:14:17;;;;;;;;;;;;;;;13.29;100.00;95536.31;10388480;28;97739;-58
2022/09/15 02:19:30;;;;;;;;;;;;;;;13.21;100.00;95514.44;10376150;28;96937;-58
2022/09/15 02:24:36;;;;;;;;;;;;;;;13.16;100.00;95519.41;10391845;28;96802;-58
2022/09/15 02:29:40;;;;;;;;;;;;;;;13.16;100.00;95508.09;10417372;28;96761;-58
2022/09/15 02:34:46;;;;;;;;;;;;;;;13.09;100.00;95510.63;10418947;28;96671;-59
2022/09/15 02:39:51;;;;;;;;;;;;;;;12.95;100.00;95509.63;10417594;28;96717;-58
2022/09/15 02:44:54;;;;;;;;;;;;;;;12.91;100.00;95503.13;10417971;28;96774;-58
2022/09/15 02:49:58;;;;;;;;;;;;;;;12.86;100.00;95501.00;10380443;27;98616;-59
2022/09/15 02:55:00;;;;;;;;;;;;;;;12.91;100.00;95494.44;10375499;28;96897;-58
2022/09/15 03:00:13;;;;;;;;;;;;;;;12.81;100.00;95492.88;10375506;28;96731;-59
2022/09/15 03:05:18;;;;;;;;;;;;;;;12.79;100.00;95494.06;10375483;28;98057;-58
2022/09/15 03:10:21;;;;;;;;;;;;;;;12.77;100.00;95486.38;10373803;28;96790;-59
2022/09/15 03:15:24;;;;;;;;;;;;;;;12.78;100.00;95487.19;10375067;28;96728;-58
2022/09/15 03:20:29;;;;;;;;;;;;;;;12.68;100.00;95479.56;10347888;28;97232;-59
2022/09/15 03:25:32;;;;;;;;;;;;;;;12.63;100.00;95480.13;10334417;28;97897;-58
2022/09/15 03:30:34;;;;;;;;;;;;;;;12.57;100.00;95480.03;10333375;28;96974;-58
2022/09/15 03:35:38;;;;;;;;;;;;;;;12.49;100.00;95481.72;10333202;28;96810;-59
2022/09/15 03:40:42;;;;;;;;;;;;;;;12.49;100.00;95476.50;10331987;28;96832;-58
2022/09/15 03:45:44;;;;;;;;;;;;;;;12.53;100.00;95478.72;10333648;28;98703;-58
2022/09/15 03:50:48;;;;;;;;;;;;;;;12.59;100.00;95472.78;10332831;28;96798;-58
2022/09/15 03:55:51;;;;;;;;;;;;;;;12.63;100.00;95469.66;10332478;28;96716;-58
2022/09/15 04:00:53;;;;;;;;;;;;;;;12.67;100.00;95460.41;10332041;28;97237;-58
2022/09/15 04:05:58;;;;;;;;;;;;;;;12.70;100.00;95464.50;10379982;28;97834;-58
2022/09/15 04:11:04;;;;;;;;;;;;;;;12.73;100.00;95464.13;10390911;28;96812;-58
2022/09/15 04:16:08;;;;;;;;;;;;;;;12.78;100.00;95466.22;10370488;28;96912;-58
2022/09/15 04:21:13;;;;;;;;;;;;;;;12.75;100.00;95456.91;10332910;28;96927;-58
2022/09/15 04:26:18;;;;;;;;;;;;;;;12.69;100.00;95447.94;10339419;28;97040;-58
2022/09/15 04:31:21;;;;;;;;;;;;;;;12.63;100.00;95443.44;10338311;28;96784;-59
2022/09/15 04:36:27;;;;;;;;;;;;;;;12.55;100.00;95461.06;10338698;28;96856;-58
2022/09/15 04:41:29;;;;;;;;;;;;;;;12.47;100.00;95443.59;10338662;28;96894;-59
2022/09/15 04:46:32;;;;;;;;;;;;;;;12.48;100.00;95453.91;10348048;28;97153;-58
2022/09/15 04:51:36;;;;;;;;;;;;;;;12.57;100.00;95436.28;10379625;28;97213;-58
2022/09/15 04:56:39;;;;;;;;;;;;;;;12.68;100.00;95441.09;10379909;28;96858;-58
2022/09/15 05:01:42;;;;;;;;;;;;;;;12.71;100.00;95446.97;10379279;28;96841;-59
2022/09/15 05:06:46;;;;;;;;;;;;;;;12.76;100.00;95453.28;10379664;28;96633;-59
2022/09/15 05:11:49;;;;;;;;;;;;;;;12.88;100.00;95451.84;10378045;28;96882;-58
2022/09/15 05:16:51;;;;;;;;;;;;;;;12.90;100.00;95474.44;10379873;28;96822;-58
2022/09/15 05:21:55;;;;;;;;;;;;;;;13.01;100.00;95456.50;10412527;28;96772;-58
2022/09/15 05:26:58;;;;;;;;;;;;;;;13.08;100.00;95472.28;10419920;27;96858;-58
2022/09/15 05:32:01;;;;;;;;;;;;;;;13.15;100.00;95467.97;10419135;27;96840;-58
2022/09/15 05:37:05;;;;;;;;;;;;;;;13.16;100.00;95474.81;10419035;28;97599;-58
2022/09/15 05:42:08;;;;;;;;;;;;;;;13.21;100.00;95484.78;10419606;28;96677;-58
2022/09/15 05:47:10;;;;;;;;;;;;;;;13.33;100.00;95480.69;10401531;28;96817;-59
2022/09/15 05:52:14;;;;;;;;;;;;;;;13.43;100.00;95490.91;10377151;28;98106;-59
2022/09/15 05:57:17;;;;;;;;;;;;;;;13.49;100.00;95469.16;10392853;28;96848;-58
2022/09/15 06:02:19;;;;;;;;;;;;;;;13.58;100.00;95489.03;10418982;28;96911;-59
2022/09/15 06:07:23;;;;;;;;;;;;;;;13.54;100.00;95494.84;10398666;28;96842;-58
2022/09/15 06:12:26;;;;;;;;;;;;;;;13.53;100.00;95485.34;10388299;27;96878;-59
2022/09/15 06:17:31;;;;;;;;;;;;;;;13.55;100.00;95494.66;10384071;28;96900;-59
2022/09/15 06:22:35;;;;;;;;;;;;;;;13.66;100.00;95495.19;10368981;28;96833;-58
2022/09/15 06:27:37;;;;;;;;;;;;;;;13.76;100.00;95506.22;10407241;28;96899;-59
2022/09/15 06:32:40;;;;;;;;;;;;;;;13.85;100.00;95502.47;10379711;28;97066;-58
2022/09/15 06:37:50;;;;;;;;;;;;;;;14.03;100.00;95512.53;10399477;28;96854;-58
2022/09/15 06:42:55;;;;;;;;;;;;;;;14.10;100.00;95513.41;10417243;28;96813;-58
2022/09/15 06:47:58;;;;;;;;;;;;;;;14.24;100.00;95530.09;10390875;27;96884;-59
2022/09/15 06:53:22;;;;;;;;;;;;;;;14.40;100.00;95528.25;10376828;28;96743;-58
2022/09/15 06:58:24;;;;;;;;;;;;;;;14.55;100.00;95531.63;10374873;28;96950;-58
2022/09/15 07:03:27;;;;;;;;;;;;;;;14.79;100.00;95538.28;10373501;28;96692;-59
2022/09/15 07:08:31;;;;;;;;;;;;;;;14.97;100.00;95539.63;10374685;28;96765;-58
2022/09/15 07:13:34;;;;;;;;;;;;;;;15.18;100.00;95544.00;10374802;28;97199;-58
2022/09/15 07:18:37;;;;;;;;;;;;;;;15.33;100.00;95536.78;10343917;28;96870;-59
2022/09/15 07:23:46;;;;;;;;;;;;;;;15.46;100.00;95534.25;10333401;28;96732;-59
2022/09/15 07:28:50;;;;;;;;;;;;;;;15.67;100.00;95550.97;10333274;28;96952;-58
2022/09/15 07:33:53;;;;;;;;;;;;;;;15.87;100.00;95551.84;10332878;28;96808;-59
2022/09/15 07:38:57;;;;;;;;;;;;;;;16.18;100.00;95557.59;10333815;28;98102;-58
2022/09/15 07:44:00;;;;;;;;;;;;;;;16.36;100.00;95557.03;10332011;28;97126;-59
2022/09/15 07:49:03;;;;;;;;;;;;;;;16.50;100.00;95561.31;10366036;28;97091;-58
2022/09/15 07:54:07;;;;;;;;;;;;;;;16.58;100.00;95574.28;10373634;28;96963;-59
2022/09/15 07:59:10;;;;;;;;;;;;;;;16.48;100.00;95576.50;10378880;28;97040;-59
2022/09/15 08:04:12;;;;;;;;;;;;;;;16.42;100.00;95569.41;10381486;28;96851;-58
2022/09/15 08:09:16;;;;;;;;;;;;;;;16.36;100.00;95573.66;10381250;28;97909;-58
2022/09/15 08:14:19;;;;;;;;;;;;;;;16.41;100.00;95576.50;10380781;28;96924;-58
2022/09/15 08:19:21;;;;;;;;;;;;;;;16.48;100.00;95589.69;10341717;28;96929;-58
2022/09/15 08:24:25;;;;;;;;;;;;;;;16.51;100.00;95594.56;10338932;28;96914;-58
2022/09/15 08:29:28;;;;;;;;;;;;;;;16.52;100.00;95593.56;10339906;28;96719;-59
2022/09/15 08:34:30;;;;;;;;;;;;;;;16.61;100.00;95599.47;10339333;28;97213;-60
2022/09/15 08:39:34;;;;;;;;;;;;;;;16.65;100.00;95602.50;10339303;28;97028;-58
2022/09/15 08:44:43;;;;;;;;;;;;;;;16.76;100.00;95613.31;10337297;28;97241;-59
2022/09/15 08:49:53;;;;;;;;;;;;;;;16.86;100.00;95614.72;10338704;28;96889;-59
2022/09/15 08:54:58;;;;;;;;;;;;;;;16.93;100.00;95612.91;10338412;28;96874;-58
2022/09/15 09:00:01;;;;;;;;;;;;;;;17.08;100.00;95617.97;10337853;28;96710;-58
2022/09/15 09:05:06;;;;;;;;;;;;;;;17.09;100.00;95617.78;10338079;28;96708;-58
2022/09/15 09:10:15;;;;;;;;;;;;;;;17.13;100.00;95618.97;10354428;28;96642;-59
2022/09/15 09:15:24;;;;;;;;;;;;;;;17.26;100.00;95612.06;10371064;28;96895;-58
2022/09/15 09:20:32;;;;;;;;;;;;;;;17.38;100.00;95611.22;10338218;28;96749;-59
2022/09/15 09:25:36;;;;;;;;;;;;;;;17.43;100.00;95613.25;10337274;28;96987;-59
2022/09/15 09:30:40;;;;;;;;;;;;;;;17.46;100.00;95617.34;10337407;28;96761;-59
2022/09/15 09:35:44;;;;;;;;;;;;;;;17.68;100.00;95602.84;10336352;28;96811;-59
2022/09/15 09:40:49;;;;;;;;;;;;;;;17.73;100.00;95608.34;10336717;28;96672;-59
2022/09/15 09:45:52;;;;;;;;;;;;;;;17.89;100.00;95604.44;10348340;28;96793;-60
2022/09/15 09:50:54;;;;;;;;;;;;;;;17.93;100.00;95603.00;10377776;28;97305;-58
2022/09/15 09:56:12;;;;;;;;;;;;;;;17.73;100.00;95597.75;10377466;28;97509;-59
2022/09/15 10:01:16;;;;;;;;;;;;;;;17.95;100.00;95600.16;10377918;28;97509;-58
2022/09/15 10:06:21;;;;;;;;;;;;;;;18.15;100.00;95584.22;10377135;28;97056;-59
2022/09/15 10:11:38;;;;;;;;;;;;;;;18.33;100.00;95580.06;10377845;28;96733;-59
2022/09/15 10:16:43;;;;;;;;;;;;;;;18.72;100.00;95573.66;10356361;28;96919;-59
2022/09/15 10:21:45;;;;;;;;;;;;;;;18.83;100.00;95585.41;10335416;28;96846;-59
2022/09/15 10:26:48;;;;;;;;;;;;;;;18.68;100.00;95583.06;10334183;28;97101;-59
2022/09/15 10:31:52;;;;;;;;;;;;;;;18.59;100.00;95584.34;10335152;28;96714;-59
2022/09/15 10:37:01;;;;;;;;;;;;;;;18.65;100.00;95584.31;10334963;28;97135;-58
2022/09/15 10:42:08;;;;;;;;;;;;;;;18.65;100.00;95575.56;10334894;28;96815;-59
2022/09/15 10:47:18;;;;;;;;;;;;;;;18.74;100.00;95576.94;10358775;28;97774;-59
2022/09/15 10:52:26;;;;;;;;;;;;;;;18.99;100.00;95584.09;10376070;28;97143;-60
2022/09/15 10:57:40;;;;;;;;;;;;;;;19.05;100.00;95584.03;10375401;28;96711;-59
2022/09/15 11:03:00;;;;;;;;;;;;;;;18.97;100.00;95586.94;10376738;28;97125;-59
2022/09/15 11:08:12;;;;;;;;;;;;;;;18.82;100.00;95589.88;10375370;28;97062;-60
2022/09/15 11:13:19;;;;;;;;;;;;;;;18.57;100.00;95589.84;10333645;28;96931;-59
2022/09/15 11:18:43;;;;;;;;;;;;;;;18.30;100.00;95590.00;10369221;28;97159;-59
2022/09/15 11:23:49;;;;;;;;;;;;;;;18.03;100.00;95584.06;10374718;28;96986;-59
2022/09/15 11:28:54;;;;;;;;;;;;;;;18.11;100.00;95585.63;10375162;28;96801;-59
2022/09/15 11:34:01;;;;;;;;;;;;;;;18.53;100.00;95587.84;10373871;28;97055;-59
2022/09/15 11:39:07;;;;;;;;;;;;;;;18.83;100.00;95585.41;10374221;28;96764;-59
2022/09/15 11:44:16;;;;;;;;;;;;;;;19.03;100.00;95579.97;10372501;28;97112;-59
2022/09/15 11:49:22;;;;;;;;;;;;;;;19.14;100.00;95573.97;10332980;28;97148;-60
2022/09/15 11:54:29;;;;;;;;;;;;;;;19.04;100.00;95579.75;10333334;28;96998;-59
2022/09/15 11:59:38;;;;;;;;;;;;;;;19.16;100.00;95579.06;10332758;28;96839;-59
2022/09/15 12:04:45;;;;;;;;;;;;;;;19.34;100.00;95576.41;10332812;28;96828;-60
2022/09/15 12:09:48;;;;;;;;;;;;;;;19.61;100.00;95574.31;10344697;28;96733;-59
2022/09/15 12:14:52;;;;;;;;;;;;;;;19.66;100.00;95570.97;10366683;28;97176;-59
2022/09/15 12:20:00;;;;;;;;;;;;;;;19.51;100.00;95566.06;10331769;28;97064;-59
2022/09/15 12:25:03;;;;;;;;;;;;;;;19.57;100.00;95562.53;10332438;28;96750;-59
2022/09/15 12:30:26;;;;;;;;;;;;;;;19.97;100.00;95562.13;10332188;28;97035;-59
2022/09/15 12:35:32;;;;;;;;;;;;;;;20.16;100.00;95567.38;10331400;28;96870;-60
2022/09/15 12:40:35;;;;;;;;;;;;;;;20.03;100.00;95564.91;10331795;28;96656;-59
2022/09/15 12:45:39;;;;;;;;;;;;;;;19.99;100.00;95562.69;10353944;28;96796;-59
2022/09/15 12:50:52;;;;;;;;;;;;;;;19.99;100.00;95557.38;10379458;28;97808;-60
2022/09/15 12:55:56;;;;;;;;;;;;;;;20.30;100.00;95546.78;10379887;28;96767;-59
2022/09/15 13:01:13;;;;;;;;;;;;;;;20.62;100.00;95539.38;10378452;28;98034;-59
2022/09/15 13:06:21;;;;;;;;;;;;;;;20.60;100.00;95549.41;10379069;28;96878;-60
2022/09/15 13:11:33;;;;;;;;;;;;;;;20.70;100.00;95548.84;10379407;28;96759;-59
2022/09/15 13:16:42;;;;;;;;;;;;;;;20.91;100.00;95542.19;10273147;28;96831;-59
2022/09/15 13:21:49;;;;;;;;;;;;;;;21.20;100.00;95551.09;10255942;28;96946;-59
2022/09/15 13:26:54;;;;;;;;;;;;;;;21.51;100.00;95551.78;10256041;28;96740;-59
2022/09/15 13:32:00;;;;;;;;;;;;;;;21.63;100.00;95560.56;10255774;28;96792;-59
2022/09/15 13:37:19;;;;;;;;;;;;;;;21.34;100.00;95556.19;10256071;28;96812;-59
2022/09/15 13:42:52;;;;;;;;;;;;;;;21.36;100.00;95554.91;10255549;28;96985;-59
2022/09/15 13:48:04;;;;;;;;;;;;;;;21.37;100.00;95545.09;10290285;28;96851;-59
2022/09/15 13:53:23;;;;;;;;;;;;;;;21.37;100.00;95543.25;10293934;28;96692;-59
2022/09/15 13:58:27;;;;;;;;;;;;;;;21.17;100.00;95537.47;10290471;28;97011;-59
2022/09/15 14:03:51;;;;;;;;;;;;;;;20.97;100.00;95541.28;10294242;28;96894;-59
2022/09/15 14:08:56;;;;;;;;;;;;;;;20.94;100.00;95541.75;10294653;28;96745;-59
2022/09/15 14:14:00;;;;;;;;;;;;;;;20.78;100.00;95537.91;10331135;28;96866;-59
2022/09/15 14:19:21;;;;;;;;;;;;;;;20.67;100.00;95536.84;10335530;28;97196;-59
2022/09/15 14:24:26;;;;;;;;;;;;;;;20.33;100.00;95541.81;10335372;28;96775;-59
2022/09/15 14:29:30;;;;;;;;;;;;;;;19.95;100.00;95535.00;10336526;28;97034;-59
2022/09/15 14:34:35;;;;;;;;;;;;;;;19.77;100.00;95549.06;10335251;28;97327;-58
2022/09/15 14:39:39;;;;;;;;;;;;;;;19.44;100.00;95565.34;10335201;28;96796;-59
2022/09/15 14:44:43;;;;;;;;;;;;;;;18.91;100.00;95571.91;10345034;28;96892;-60
2022/09/15 14:50:06;;;;;;;;;;;;;;;18.52;100.00;95578.31;10375914;28;96912;-60
2022/09/15 14:55:12;;;;;;;;;;;;;;;18.78;100.00;95556.13;10376071;28;97014;-59
2022/09/15 15:00:19;;;;;;;;;;;;;;;19.28;100.00;95550.00;10375108;28;97973;-59
2022/09/15 15:05:24;;;;;;;;;;;;;;;19.60;100.00;95548.03;10375687;28;96814;-59
2022/09/15 15:10:30;;;;;;;;;;;;;;;19.37;100.00;95559.28;10375573;28;96726;-59
2022/09/15 15:15:39;;;;;;;;;;;;;;;19.18;100.00;95556.63;10355089;28;96852;-59
2022/09/15 15:20:48;;;;;;;;;;;;;;;19.01;100.00;95559.00;10334844;28;96867;-60
2022/09/15 15:25:51;;;;;;;;;;;;;;;18.70;100.00;95559.84;10333734;28;96943;-58
2022/09/15 15:31:05;;;;;;;;;;;;;;;18.53;100.00;95558.75;10333207;28;96759;-58
2022/09/15 15:36:08;;;;;;;;;;;;;;;18.49;100.00;95548.59;10333076;28;96961;-59
2022/09/15 15:41:18;;;;;;;;;;;;;;;18.53;100.00;95553.47;10333222;28;97168;-59
2022/09/15 15:46:36;;;;;;;;;;;;;;;18.60;100.00;95541.00;10360314;28;96738;-61
2022/09/15 15:51:40;;;;;;;;;;;;;;;18.64;100.00;95550.13;10374316;28;96835;-58
2022/09/15 15:56:43;;;;;;;;;;;;;;;18.68;100.00;95561.91;10374712;28;96650;-59
2022/09/15 16:01:47;;;;;;;;;;;;;;;18.54;100.00;95563.84;10371913;28;96769;-58
2022/09/15 16:06:51;;;;;;;;;;;;;;;18.33;100.00;95580.84;10382511;28;96918;-59
2022/09/15 16:11:54;;;;;;;;;;;;;;;18.28;100.00;95588.59;10397320;28;97875;-59
2022/09/15 16:17:02;;;;;;;;;;;;;;;18.32;100.00;95587.16;10358175;28;96937;-60
2022/09/15 16:22:06;;;;;;;;;;;;;;;18.27;100.00;95597.53;10372056;28;97006;-59
2022/09/15 16:27:13;;;;;;;;;;;;;;;18.27;100.00;95581.69;10363845;28;98609;-59
2022/09/15 16:32:17;;;;;;;;;;;;;;;18.37;100.00;95589.97;10406946;28;96892;-58
2022/09/15 16:37:21;;;;;;;;;;;;;;;18.31;100.00;95594.28;10384956;28;96839;-60
2022/09/15 16:42:24;;;;;;;;;;;;;;;18.41;100.00;95593.81;10361907;28;98557;-58
2022/09/15 16:47:26;;;;;;;;;;;;;;;18.62;100.00;95595.31;10357050;28;97920;-62
2022/09/15 16:52:30;;;;;;;;;;;;;;;18.72;100.00;95600.13;10338063;28;96775;-58
2022/09/15 16:57:33;;;;;;;;;;;;;;;18.73;100.00;95595.66;10353701;28;97927;-59
2022/09/15 17:02:35;;;;;;;;;;;;;;;18.68;100.00;95605.03;10393372;28;96888;-58
2022/09/15 17:07:39;;;;;;;;;;;;;;;18.47;100.00;95606.19;10343342;28;97817;-58
2022/09/15 17:12:42;;;;;;;;;;;;;;;18.41;100.00;95612.34;10342968;28;96898;-59
2022/09/15 17:17:45;;;;;;;;;;;;;;;18.45;100.00;95616.16;10366106;28;97293;-58
2022/09/15 17:22:49;;;;;;;;;;;;;;;18.16;100.00;95622.03;10419591;27;96766;-60
2022/09/15 17:27:52;;;;;;;;;;;;;;;17.84;100.00;95629.84;10373798;27;98055;-58
2022/09/15 17:33:01;;;;;;;;;;;;;;;17.57;100.00;95640.47;10406585;27;97560;-58
2022/09/15 17:38:06;;;;;;;;;;;;;;;17.47;100.00;95650.63;10356004;28;97844;-58
2022/09/15 17:43:12;;;;;;;;;;;;;;;17.32;100.00;95658.78;10395529;28;96774;-60
2022/09/15 17:48:15;;;;;;;;;;;;;;;17.23;100.00;95665.25;10347721;28;96909;-58
2022/09/15 17:53:21;;;;;;;;;;;;;;;17.14;100.00;95659.38;10388874;28;96885;-59
2022/09/15 17:58:25;;;;;;;;;;;;;;;17.14;100.00;95667.28;10369639;28;96801;-58
2022/09/15 18:03:29;;;;;;;;;;;;;;;17.13;100.00;95665.69;10351800;28;96813;-59
2022/09/15 18:08:34;;;;;;;;;;;;;;;17.08;100.00;95662.84;10374479;28;97089;-59
2022/09/15 18:13:37;;;;;;;;;;;;;;;16.91;100.00;95670.34;10388842;28;97506;-58
2022/09/15 18:18:40;;;;;;;;;;;;;;;16.81;100.00;95673.34;10335918;28;96792;-58
2022/09/15 18:23:44;;;;;;;;;;;;;;;16.70;100.00;95666.81;10335630;28;96816;-59
2022/09/15 18:28:46;;;;;;;;;;;;;;;16.38;100.00;95673.63;10335600;28;96757;-59
2022/09/15 18:33:49;;;;;;;;;;;;;;;16.20;100.00;95685.50;10414601;28;96868;-59
2022/09/15 18:38:53;;;;;;;;;;;;;;;16.08;100.00;95684.44;10407130;27;96956;-58
2022/09/15 18:43:55;;;;;;;;;;;;;;;15.96;100.00;95686.81;10384367;27;98014;-59
2022/09/15 18:48:58;;;;;;;;;;;;;;;15.84;100.00;95694.47;10417562;28;96796;-58
2022/09/15 18:54:02;;;;;;;;;;;;;;;15.72;100.00;95685.50;10417082;28;96838;-59
2022/09/15 18:59:05;;;;;;;;;;;;;;;15.64;100.00;95677.75;10415954;28;96733;-58
2022/09/15 19:04:07;;;;;;;;;;;;;;;15.47;100.00;95679.81;10415738;27;96925;-58
2022/09/15 19:09:11;;;;;;;;;;;;;;;15.28;100.00;95689.19;10402804;27;97098;-58
2022/09/15 19:14:14;;;;;;;;;;;;;;;15.13;100.00;95691.91;10333670;28;96944;-59
2022/09/15 19:19:16;;;;;;;;;;;;;;;15.09;100.00;95694.09;10364665;28;97353;-58
2022/09/15 19:24:20;;;;;;;;;;;;;;;15.04;100.00;95699.09;10335173;28;96816;-59
2022/09/15 19:29:23;;;;;;;;;;;;;;;15.07;100.00;95697.91;10332919;28;96796;-59
2022/09/15 19:34:25;;;;;;;;;;;;;;;15.04;100.00;95706.19;10395027;28;96857;-59
2022/09/15 19:39:30;;;;;;;;;;;;;;;15.03;100.00;95691.41;10371947;27;96860;-59
2022/09/15 19:44:33;;;;;;;;;;;;;;;15.01;100.00;95686.34;10361070;28;97102;-58
2022/09/15 19:49:36;;;;;;;;;;;;;;;14.98;100.00;95701.69;10368770;28;97218;-58
2022/09/15 19:54:40;;;;;;;;;;;;;;;14.91;100.00;95699.00;10372984;28;96779;-58
2022/09/15 19:59:43;;;;;;;;;;;;;;;14.96;100.00;95701.88;10394349;28;97146;-58
2022/09/15 20:04:47;;;;;;;;;;;;;;;15.06;100.00;95697.13;10373065;28;97082;-60
2022/09/15 20:09:52;;;;;;;;;;;;;;;15.15;100.00;95694.34;10349288;28;96793;-59
2022/09/15 20:14:54;;;;;;;;;;;;;;;15.25;100.00;95694.81;10372615;28;96997;-58
2022/09/15 20:19:57;;;;;;;;;;;;;;;15.22;100.00;95703.13;10345822;28;97188;-58
2022/09/15 20:25:01;;;;;;;;;;;;;;;15.09;100.00;95712.50;10331753;28;98025;-58
2022/09/15 20:30:04;;;;;;;;;;;;;;;15.02;100.00;95713.44;10330993;28;97152;-58
2022/09/15 20:35:07;;;;;;;;;;;;;;;15.09;100.00;95712.50;10331370;28;96907;-58
2022/09/15 20:40:11;;;;;;;;;;;;;;;15.08;100.00;95718.78;10370425;28;97071;-58
2022/09/15 20:45:14;;;;;;;;;;;;;;;15.04;100.00;95719.34;10386818;28;96834;-58
2022/09/15 20:50:16;;;;;;;;;;;;;;;14.98;100.00;95714.84;10359445;28;97009;-58
2022/09/15 20:55:20;;;;;;;;;;;;;;;14.97;100.00;95715.84;10330940;28;97368;-58
2022/09/15 21:00:23;;;;;;;;;;;;;;;14.88;100.00;95721.22;10330837;28;96689;-59
2022/09/15 21:05:26;;;;;;;;;;;;;;;14.85;100.00;95731.28;10333750;28;96720;-58
2022/09/15 21:10:30;;;;;;;;;;;;;;;14.91;100.00;95731.34;10394176;28;98097;-62
2022/09/15 21:15:33;;;;;;;;;;;;;;;15.02;100.00;95734.50;10403337;28;97972;-61
2022/09/15 21:20:35;;;;;;;;;;;;;;;15.06;100.00;95743.63;10409138;28;96820;-61
2022/09/15 21:25:39;;;;;;;;;;;;;;;15.03;100.00;95739.56;10381157;28;97282;-61
2022/09/15 21:30:42;;;;;;;;;;;;;;;15.11;100.00;95734.19;10375445;28;97210;-61
2022/09/15 21:35:46;;;;;;;;;;;;;;;15.21;100.00;95735.69;10379553;28;97097;-61
2022/09/15 21:40:50;;;;;;;;;;;;;;;15.14;100.00;95735.63;10402563;28;97144;-62
2022/09/15 21:45:54;;;;;;;;;;;;;;;15.07;100.00;95732.91;10391952;28;97034;-62
2022/09/15 21:50:57;;;;;;;;;;;;;;;15.06;100.00;95733.94;10375325;28;96914;-61
2022/09/15 21:56:02;;;;;;;;;;;;;;;15.08;100.00;95736.38;10372353;28;97217;-62
2022/09/15 22:01:11;;;;;;;;;;;;;;;15.11;100.00;95742.09;10374939;28;97067;-62
2022/09/15 22:06:14;;;;;;;;;;;;;;;15.11;100.00;95733.34;10376038;28;97046;-62
2022/09/15 22:11:18;;;;;;;;;;;;;;;15.17;100.00;95730.00;10375416;28;97144;-61
2022/09/15 22:16:22;;;;;;;;;;;;;;;15.29;100.00;95720.56;10374680;28;96921;-61
2022/09/15 22:21:26;;;;;;;;;;;;;;;15.40;100.00;95713.16;10386786;28;96802;-61
2022/09/15 22:26:31;;;;;;;;;;;;;;;15.43;100.00;95718.88;10398204;28;96710;-62
2022/09/15 22:31:33;;;;;;;;;;;;;;;15.27;100.00;95724.41;10384741;27;96800;-61
2022/09/15 22:36:36;;;;;;;;;;;;;;;15.17;100.00;95708.13;10375764;28;96800;-61
2022/09/15 22:41:40;;;;;;;;;;;;;;;15.13;100.00;95711.13;10392811;28;98119;-61
2022/09/15 22:46:43;;;;;;;;;;;;;;;15.09;100.00;95712.50;10416824;27;96682;-62
2022/09/15 22:51:45;;;;;;;;;;;;;;;15.04;100.00;95717.50;10416830;28;96676;-61
2022/09/15 22:56:49;;;;;;;;;;;;;;;15.10;100.00;95703.63;10417652;27;96691;-61
2022/09/15 23:01:52;;;;;;;;;;;;;;;15.12;100.00;95698.16;10381270;28;97125;-61
2022/09/15 23:06:54;;;;;;;;;;;;;;;15.09;100.00;95695.91;10374929;28;96712;-61
2022/09/15 23:11:58;;;;;;;;;;;;;;;15.08;100.00;95687.22;10373786;28;96831;-61
2022/09/15 23:17:01;;;;;;;;;;;;;;;15.03;100.00;95696.69;10373893;28;96751;-61
2022/09/15 23:22:04;;;;;;;;;;;;;;;14.99;100.00;95691.00;10374335;28;97062;-61
2022/09/15 23:27:07;;;;;;;;;;;;;;;15.04;100.00;95687.78;10373387;28;96788;-61
2022/09/15 23:32:10;;;;;;;;;;;;;;;15.16;100.00;95685.44;10372306;28;96862;-61
2022/09/15 23:37:13;;;;;;;;;;;;;;;15.22;100.00;95688.13;10373920;28;96911;-61
2022/09/15 23:42:17;;;;;;;;;;;;;;;15.25;100.00;95695.66;10373462;28;96708;-61
2022/09/15 23:47:20;;;;;;;;;;;;;;;15.22;100.00;95688.13;10374589;28;96736;-61
2022/09/15 23:52:23;;;;;;;;;;;;;;;15.09;100.00;95686.19;10377673;28;96826;-61
2022/09/15 23:57:27;;;;;;;;;;;;;;;15.03;100.00;95684.34;10382083;28;96806;-61
